Lansing, Michigan
Current Conditions -  °F | °C
As of 1:53 PM on Thursday 30 Oct 2014 (Local Time) from KLAN Reporting Station
Overcast Overcast  
Wind Chill: 44°   Ceiling: 4600
Heat Index: 48°   Visibility: 10mi
Dew Point: 37°   Wind: 8mph
Humidity: 66%   Direction: 210°SSW
Pressure: 30.09"   Gusts: NA
Location:  42.73°N, 84.55°W
Report Text: KLAN 301753Z 21007KT 10SM FEW032 OVC046 09/03 A3009 RMK AO2 SLP197 T00890028 10089 20039 58015
Loading
Personal Weather Stations






























Interactive Weather Map New forecast layout! Learn more

10-Day Weather Forecast

Advertisements
Track Severe Weather on mobile